createdAt,value
2016-08-22T00:00:18.214Z,77.95
2016-08-22T00:01:18.318Z,78.47
2016-08-22T00:02:17.374Z,77.95
2016-08-22T00:03:18.055Z,77.76
2016-08-22T00:04:17.973Z,78.25
2016-08-22T00:05:17.934Z,78.15
2016-08-22T00:06:17.882Z,78.15
2016-08-22T00:07:18.043Z,78.34
2016-08-22T00:08:17.093Z,77.48
2016-08-22T00:09:17.750Z,77.48
2016-08-22T00:10:17.721Z,78.05
2016-08-22T00:11:17.652Z,78.05
2016-08-22T00:12:17.811Z,78.05
2016-08-22T00:13:17.773Z,77.67
2016-08-22T00:14:16.812Z,77.95
2016-08-22T00:15:17.472Z,77.58
2016-08-22T00:16:17.422Z,77.19
2016-08-22T00:17:17.434Z,77
2016-08-22T00:18:17.322Z,77
2016-08-22T00:19:16.579Z,77.13
2016-08-22T00:20:17.234Z,77.23
2016-08-22T00:21:17.393Z,76.42
2016-08-22T00:22:17.341Z,77.09
2016-08-22T00:23:18.276Z,76.94
2016-08-22T00:24:17.043Z,76.71
2016-08-22T00:25:17.003Z,76.62
2016-08-22T00:26:16.964Z,76.9
2016-08-22T00:27:16.197Z,77
2016-08-22T00:28:16.872Z,77.19
2016-08-22T00:29:17.013Z,76.62
2016-08-22T00:30:16.078Z,76.32
2016-08-22T00:31:16.723Z,76.32
2016-08-22T00:32:16.872Z,76.62
2016-08-22T00:33:16.625Z,76.42
2016-08-22T00:34:16.576Z,76.52
2016-08-22T00:35:15.836Z,76.52
2016-08-22T00:36:16.003Z,76.23
2016-08-22T00:37:16.647Z,76.23
2016-08-22T00:38:16.392Z,76.23
2016-08-22T00:39:15.642Z,75.75
2016-08-22T00:40:16.300Z,75.89
2016-08-22T00:41:16.251Z,75.85
2016-08-22T00:42:16.204Z,76.07
2016-08-22T00:43:15.871Z,75.65
2016-08-22T00:44:16.313Z,75.75
2016-08-22T00:45:16.063Z,75.75
2016-08-22T00:46:16.028Z,76.04
2016-08-22T00:47:16.171Z,75.56
2016-08-22T00:48:16.139Z,75.85
2016-08-22T00:49:15.886Z,75.95
2016-08-22T00:50:16.034Z,75.56
2016-08-22T00:51:15.825Z,75.95
2016-08-22T00:52:16.145Z,75.46
2016-08-22T00:53:15.745Z,75.46
2016-08-22T00:54:15.644Z,75.46
2016-08-22T00:55:15.595Z,75.56
2016-08-22T00:56:15.554Z,75.27
2016-08-22T00:57:15.715Z,74.98
2016-08-22T00:58:15.483Z,75.85
2016-08-22T00:59:15.425Z,75.75
2016-08-22T01:00:14.878Z,75.85
2016-08-22T01:01:14.623Z,75.37
2016-08-22T01:02:15.276Z,75.65
2016-08-22T01:03:15.225Z,75.75
2016-08-22T01:04:15.394Z,75.56
2016-08-22T01:05:15.144Z,75.81
2016-08-22T01:06:15.114Z,75.14
2016-08-22T01:07:15.234Z,76
2016-08-22T01:08:14.489Z,75.71
2016-08-22T01:09:14.946Z,76
2016-08-22T01:10:14.895Z,75.9
2016-08-22T01:11:14.146Z,75.71
2016-08-22T01:12:14.814Z,76.19
2016-08-22T01:13:14.756Z,76.39
2016-08-22T01:14:14.705Z,75.81
2016-08-22T01:15:14.166Z,75.71
2016-08-22T01:16:14.624Z,75.62
2016-08-22T01:17:14.564Z,75.71
2016-08-22T01:18:14.524Z,76.29
2016-08-22T01:19:14.480Z,76.19
2016-08-22T01:20:13.728Z,76.29
2016-08-22T01:21:14.383Z,75.71
2016-08-22T01:22:14.328Z,75.71
2016-08-22T01:23:14.285Z,75.81
2016-08-22T01:24:14.233Z,76.29
2016-08-22T01:25:14.191Z,75.9
2016-08-22T01:26:14.153Z,75.9
2016-08-22T01:27:14.105Z,75.62
2016-08-22T01:28:14.054Z,75.62
2016-08-22T01:29:14.013Z,75.81
2016-08-22T01:30:13.956Z,75.62
2016-08-22T01:31:13.907Z,76.19
2016-08-22T01:32:13.855Z,76.67
2016-08-22T01:33:13.812Z,76.1
2016-08-22T01:34:13.769Z,76.19
2016-08-22T01:35:13.717Z,76.57
2016-08-22T01:36:13.685Z,76.19
2016-08-22T01:37:12.928Z,75.62
2016-08-22T01:38:13.580Z,75.71
2016-08-22T01:39:13.533Z,75.81
2016-08-22T01:40:13.485Z,75.9
2016-08-22T01:41:12.743Z,75.71
2016-08-22T01:42:13.404Z,75.9
2016-08-22T01:43:13.341Z,76.1
2016-08-22T01:44:13.345Z,75.62
2016-08-22T01:45:13.243Z,75.62
2016-08-22T01:46:13.207Z,75.43
2016-08-22T01:47:13.150Z,75.23
2016-08-22T01:48:13.111Z,76.1
2016-08-22T01:49:13.265Z,76
2016-08-22T01:50:13.017Z,75.71
2016-08-22T01:51:12.964Z,75.43
2016-08-22T01:52:12.934Z,75.71
2016-08-22T01:53:12.942Z,75.81
2016-08-22T01:54:12.837Z,75.04
2016-08-22T01:55:12.071Z,75.71
2016-08-22T01:56:12.733Z,76
2016-08-22T01:57:11.983Z,75.23
2016-08-22T01:58:12.634Z,75.62
2016-08-22T01:59:11.886Z,75.62
2016-08-22T02:00:12.530Z,75.62
2016-08-22T02:01:12.495Z,76
2016-08-22T02:02:12.453Z,75.81
2016-08-22T02:03:11.705Z,76
2016-08-22T02:04:12.353Z,75.9
2016-08-22T02:05:26.492Z,76.19
2016-08-22T02:06:12.263Z,76.19
2016-08-22T02:07:11.923Z,75.9
2016-08-22T02:08:12.174Z,76.39
2016-08-22T02:09:12.116Z,76
2016-08-22T02:10:12.076Z,76
2016-08-22T02:11:11.337Z,76.48
2016-08-22T02:12:11.286Z,76.39
2016-08-22T02:13:11.934Z,76.19
2016-08-22T02:14:11.888Z,76
2016-08-22T02:15:11.835Z,76.1
2016-08-22T02:16:11.985Z,76
2016-08-22T02:17:11.240Z,76
2016-08-22T02:18:11.193Z,76.39
2016-08-22T02:19:11.657Z,76.1
2016-08-22T02:20:11.693Z,75.9
2016-08-22T02:21:10.866Z,76
2016-08-22T02:22:11.405Z,76.39
2016-08-22T02:23:11.452Z,76.48
2016-08-22T02:24:11.616Z,76
2016-08-22T02:25:11.363Z,76.19
2016-08-22T02:26:11.313Z,76.48
2016-08-22T02:27:11.478Z,76.1
2016-08-22T02:28:11.227Z,76
2016-08-22T02:29:11.372Z,75.9
2016-08-22T02:30:11.133Z,75.71
2016-08-22T02:31:11.278Z,75.9
2016-08-22T02:32:11.034Z,76.1
2016-08-22T02:33:10.985Z,76.19
2016-08-22T02:34:11.143Z,76
2016-08-22T02:35:10.885Z,76.15
2016-08-22T02:36:10.144Z,76
2016-08-22T02:37:10.794Z,76.67
2016-08-22T02:38:10.753Z,76.19
2016-08-22T02:39:10.706Z,76.19
2016-08-22T02:40:10.673Z,76.48
2016-08-22T02:41:10.604Z,76.1
2016-08-22T02:42:09.864Z,75.9
2016-08-22T02:43:10.513Z,75.9
2016-08-22T02:44:09.777Z,75.81
2016-08-22T02:45:09.725Z,75.81
2016-08-22T02:46:10.365Z,75.81
2016-08-22T02:47:10.336Z,75.62
2016-08-22T02:48:10.281Z,75.81
2016-08-22T02:49:10.233Z,76
2016-08-22T02:50:10.178Z,75.71
2016-08-22T02:51:10.158Z,75.81
2016-08-22T02:52:10.095Z,75.77
2016-08-22T02:53:09.346Z,75.62
2016-08-22T02:54:10.192Z,75.71
2016-08-22T02:55:09.969Z,75.81
2016-08-22T02:56:09.898Z,76
2016-08-22T02:57:09.857Z,75.52
2016-08-22T02:58:09.807Z,75.62
2016-08-22T02:59:09.777Z,75.62
2016-08-22T03:00:09.716Z,75.62
2016-08-22T03:01:09.667Z,75.62
2016-08-22T03:02:09.625Z,76
2016-08-22T03:03:09.769Z,76.1
2016-08-22T03:04:09.525Z,76
2016-08-22T03:05:09.686Z,75.71
2016-08-22T03:06:09.425Z,75.9
2016-08-22T03:07:09.583Z,76.25
2016-08-22T03:08:09.554Z,76.15
2016-08-22T03:09:09.895Z,76.44
2016-08-22T03:10:09.236Z,75.68
2016-08-22T03:11:09.256Z,75.96
2016-08-22T03:12:08.443Z,75.71
2016-08-22T03:13:09.115Z,75.81
2016-08-22T03:14:09.056Z,75.81
2016-08-22T03:15:09.006Z,75.68
2016-08-22T03:16:08.955Z,76
2016-08-22T03:17:08.917Z,75.96
2016-08-22T03:18:08.865Z,76
2016-08-22T03:19:08.814Z,75.77
2016-08-22T03:20:08.793Z,75.62
2016-08-22T03:21:08.934Z,75.58
2016-08-22T03:22:08.683Z,75.04
2016-08-22T03:23:08.833Z,75.23
2016-08-22T03:24:08.594Z,75.43
2016-08-22T03:25:08.732Z,75.81
2016-08-22T03:26:08.486Z,75.9
2016-08-22T03:27:08.473Z,75.39
2016-08-22T03:28:08.393Z,75.33
2016-08-22T03:29:08.343Z,75.33
2016-08-22T03:30:08.295Z,75.71
2016-08-22T03:31:08.252Z,75.81
2016-08-22T03:32:08.204Z,74.95
2016-08-22T03:33:08.162Z,75.81
2016-08-22T03:34:08.106Z,75.71
2016-08-22T03:35:08.064Z,75.9
2016-08-22T03:36:08.013Z,76.15
2016-08-22T03:37:07.972Z,75.68
2016-08-22T03:38:07.217Z,76.15
2016-08-22T03:39:08.073Z,76.15
2016-08-22T03:40:07.823Z,75.96
2016-08-22T03:41:07.972Z,76.44
2016-08-22T03:42:07.744Z,76.44
2016-08-22T03:43:07.884Z,76.15
2016-08-22T03:44:07.828Z,76.35
2016-08-22T03:45:06.944Z,76.15
2016-08-22T03:46:07.541Z,76.35
2016-08-22T03:47:07.503Z,76.64
2016-08-22T03:48:07.454Z,76.06
2016-08-22T03:49:06.696Z,76.06
2016-08-22T03:50:07.351Z,76.06
2016-08-22T03:51:07.304Z,75.87
2016-08-22T03:52:07.253Z,75.96
2016-08-22T03:53:07.613Z,76.64
2016-08-22T03:54:07.212Z,76.25
2016-08-22T03:55:07.121Z,76.06
2016-08-22T03:56:06.362Z,76.25
2016-08-22T03:57:07.217Z,76.54
2016-08-22T03:58:06.970Z,76.44
2016-08-22T03:59:06.922Z,76.54
2016-08-22T04:00:06.871Z,76.25
2016-08-22T04:01:21.021Z,76.82
2016-08-22T04:02:06.082Z,76.25
2016-08-22T04:03:06.729Z,76.19
2016-08-22T04:04:05.992Z,76.48
2016-08-22T04:05:06.838Z,76.1
2016-08-22T04:06:05.891Z,76.39
2016-08-22T04:07:06.553Z,76.48
2016-08-22T04:08:06.505Z,76.29
2016-08-22T04:09:06.459Z,76.67
2016-08-22T04:10:05.903Z,76.92
2016-08-22T04:11:06.404Z,76.54
2016-08-22T04:12:06.299Z,76.73
2016-08-22T04:13:05.563Z,76.92
2016-08-22T04:14:05.511Z,77.21
2016-08-22T04:15:06.170Z,77.4
2016-08-22T04:16:06.122Z,76.64
2016-08-22T04:17:06.268Z,77.4
2016-08-22T04:18:06.221Z,77.31
2016-08-22T04:19:05.983Z,77.21
2016-08-22T04:20:05.930Z,77.11
2016-08-22T04:21:05.930Z,77.31
2016-08-22T04:22:05.842Z,77.44
2016-08-22T04:23:05.086Z,76.67
2016-08-22T04:24:05.750Z,76.67
2016-08-22T04:25:05.703Z,76.57
2016-08-22T04:26:05.652Z,76.57
2016-08-22T04:27:05.590Z,76.77
2016-08-22T04:28:05.065Z,76.29
2016-08-22T04:29:05.503Z,76.67
2016-08-22T04:30:05.662Z,76.57
2016-08-22T04:31:05.412Z,76.48
2016-08-22T04:32:05.364Z,76.57
2016-08-22T04:33:04.628Z,76.86
2016-08-22T04:34:05.272Z,76.86
2016-08-22T04:35:04.518Z,76.48
2016-08-22T04:36:05.212Z,76.67
2016-08-22T04:37:05.119Z,76.67
2016-08-22T04:38:05.086Z,76.86
2016-08-22T04:39:05.032Z,77.25
2016-08-22T04:40:05.198Z,77.06
2016-08-22T04:41:04.943Z,77.25
2016-08-22T04:42:04.887Z,77.4
2016-08-22T04:43:05.037Z,77.78
2016-08-22T04:44:04.303Z,77.78
2016-08-22T04:45:04.962Z,77.88
2016-08-22T04:46:04.701Z,78.11
2016-08-22T04:47:04.675Z,78.02
2016-08-22T04:48:05.045Z,78.3
2016-08-22T04:49:04.774Z,78.02
2016-08-22T04:50:04.511Z,78.3
2016-08-22T04:51:04.663Z,78.4
2016-08-22T04:52:04.415Z,78.59
2016-08-22T04:53:04.574Z,78.11
2016-08-22T04:54:04.328Z,78.78
2016-08-22T04:55:04.487Z,78.59
2016-08-22T04:56:04.229Z,78.59
2016-08-22T04:57:03.685Z,78.55
2016-08-22T04:58:03.422Z,78.55
2016-08-22T04:59:04.094Z,79.03
2016-08-22T05:00:04.034Z,79.13
2016-08-22T05:01:03.988Z,79.22
2016-08-22T05:02:03.945Z,78.88
2016-08-22T05:03:03.894Z,78.4
2016-08-22T05:04:03.350Z,78.78
2016-08-22T05:05:04.008Z,78.59
2016-08-22T05:06:03.749Z,78.69
2016-08-22T05:07:03.012Z,78.59
2016-08-22T05:08:02.962Z,78.27
2016-08-22T05:09:03.614Z,78.59
2016-08-22T05:10:03.613Z,78.78
2016-08-22T05:11:03.523Z,78.59
2016-08-22T05:12:03.531Z,78.69
2016-08-22T05:13:04.032Z,78.3
2016-08-22T05:14:03.393Z,78.2
2016-08-22T05:15:03.333Z,78.2
2016-08-22T05:16:03.288Z,78.2
2016-08-22T05:17:02.534Z,78.02
2016-08-22T05:18:03.205Z,78.11
2016-08-22T05:19:03.172Z,78.17
2016-08-22T05:20:03.103Z,78.4
2016-08-22T05:21:02.343Z,78.11
2016-08-22T05:22:02.994Z,78.11
2016-08-22T05:23:02.950Z,77.82
2016-08-22T05:24:02.909Z,77.63
2016-08-22T05:25:02.855Z,78.2
2016-08-22T05:26:02.802Z,77.82
2016-08-22T05:27:02.775Z,78.2
2016-08-22T05:28:03.116Z,77.44
2016-08-22T05:29:02.669Z,78.11
2016-08-22T05:30:02.635Z,77.92
2016-08-22T05:31:02.570Z,77.82
2016-08-22T05:32:02.524Z,78.02
2016-08-22T05:33:02.744Z,77.92
2016-08-22T05:34:02.436Z,78.4
2016-08-22T05:35:02.380Z,78.2
2016-08-22T05:36:02.346Z,78.02
2016-08-22T05:37:02.290Z,78.02
2016-08-22T05:38:02.252Z,78.02
2016-08-22T05:39:02.190Z,77.92
2016-08-22T05:40:02.555Z,77.44
2016-08-22T05:41:02.092Z,78.2
2016-08-22T05:42:02.061Z,77.82
2016-08-22T05:43:01.315Z,77.63
2016-08-22T05:44:01.959Z,77.58
2016-08-22T05:45:02.114Z,77.73
2016-08-22T05:46:01.906Z,77.95
2016-08-22T05:47:01.813Z,77.63
2016-08-22T05:48:01.833Z,77.63
2016-08-22T05:49:01.721Z,77.92
2016-08-22T05:50:01.672Z,77.73
2016-08-22T05:51:01.148Z,78.4
2016-08-22T05:52:01.586Z,78.11
2016-08-22T05:53:01.747Z,78.3
2016-08-22T05:54:01.482Z,78.3
2016-08-22T05:55:01.654Z,78.11
2016-08-22T05:56:01.394Z,78.2
2016-08-22T05:57:01.352Z,77.63
2016-08-22T05:58:01.303Z,78.2
2016-08-22T05:59:01.254Z,77.82
2016-08-22T06:00:01.205Z,78.4
2016-08-22T06:01:01.161Z,78.4
2016-08-22T06:02:01.117Z,78.69
2016-08-22T06:03:00.402Z,78.11
2016-08-22T06:04:01.005Z,78.2
2016-08-22T06:05:01.172Z,78.4
2016-08-22T06:06:01.126Z,78.11
2016-08-22T06:07:00.874Z,78.59
2016-08-22T06:08:01.022Z,77.92
2016-08-22T06:09:00.783Z,77.92
2016-08-22T06:10:00.734Z,77.63
2016-08-22T06:11:00.683Z,78.4
2016-08-22T06:12:00.845Z,77.92
2016-08-22T06:13:01.096Z,77.92
2016-08-22T06:14:00.538Z,78.4
2016-08-22T06:15:00.494Z,78.4
2016-08-22T06:16:00.644Z,78.97
2016-08-22T06:17:00.613Z,79.07
2016-08-22T06:18:00.352Z,79.55
2016-08-22T06:19:00.312Z,80.12
2016-08-22T06:20:00.467Z,79.74
2016-08-22T06:21:00.412Z,80.51
2016-08-22T06:22:00.572Z,79.55
2016-08-22T06:23:00.338Z,80.03
2016-08-22T06:24:00.272Z,80.22
2016-08-22T06:25:00.023Z,80.22
2016-08-22T06:26:00.176Z,80.41
2016-08-22T06:27:00.143Z,80.99
2016-08-22T06:27:59.872Z,81.46
2016-08-22T06:29:00.050Z,80.99
2016-08-22T06:29:59.785Z,82.14
2016-08-22T06:30:59.043Z,81.75
2016-08-22T06:31:59.693Z,82.14
2016-08-22T06:32:59.645Z,81.95
2016-08-22T06:33:59.602Z,82.42
2016-08-22T06:34:59.545Z,82.71
2016-08-22T06:35:59.533Z,82.14
2016-08-22T06:36:58.964Z,82.9
2016-08-22T06:37:58.927Z,83.48
2016-08-22T06:38:59.439Z,83.53
2016-08-22T06:39:59.320Z,83.34
2016-08-22T06:40:59.273Z,83.72
2016-08-22T06:41:59.226Z,83.53
2016-08-22T06:42:59.170Z,83.76
2016-08-22T06:43:59.129Z,84.2
2016-08-22T06:44:59.290Z,83.86
2016-08-22T06:45:59.440Z,84.3
2016-08-22T06:46:58.982Z,83.82
2016-08-22T06:47:59.353Z,83.92
2016-08-22T06:48:58.896Z,84.58
2016-08-22T06:49:58.844Z,84.58
2016-08-22T06:50:58.802Z,84.58
2016-08-22T06:51:58.743Z,85.25
2016-08-22T06:52:58.910Z,85.45
2016-08-22T06:53:58.658Z,85.64
2016-08-22T06:54:58.663Z,86.5
2016-08-22T06:55:58.607Z,86.41
2016-08-22T06:56:57.825Z,85.93
2016-08-22T06:57:57.970Z,86.88
2016-08-22T06:58:58.423Z,87.08
2016-08-22T06:59:58.374Z,86.69
2016-08-22T07:00:58.816Z,86.6
2016-08-22T07:01:57.593Z,87.08
2016-08-22T07:02:58.443Z,87.65
2016-08-22T07:03:58.584Z,87.46
2016-08-22T07:04:58.340Z,87.55
2016-08-22T07:05:57.398Z,87.46
2016-08-22T07:06:58.241Z,88.23
2016-08-22T07:07:57.996Z,87.94
2016-08-22T07:08:57.957Z,88.03
2016-08-22T07:09:57.199Z,88.32
2016-08-22T07:10:57.875Z,88.8
2016-08-22T07:11:57.810Z,88.9
2016-08-22T07:12:57.846Z,88.8
2016-08-22T07:13:57.015Z,88.99
2016-08-22T07:14:57.894Z,88.8
2016-08-22T07:15:57.625Z,88.23
2016-08-22T07:16:57.764Z,88.7
2016-08-22T07:17:57.044Z,88.9
2016-08-22T07:18:57.694Z,88.8
2016-08-22T07:19:57.438Z,89.28
2016-08-22T07:20:57.390Z,89.57
2016-08-22T07:21:57.383Z,89.95
2016-08-22T07:22:57.419Z,90.53
2016-08-22T07:23:56.758Z,90.39
2016-08-22T07:24:57.405Z,90.14
2016-08-22T07:25:57.152Z,90.62
2016-08-22T07:26:57.311Z,90.05
2016-08-22T07:27:56.357Z,90.48
2016-08-22T07:28:56.985Z,90.62
2016-08-22T07:29:57.155Z,90.29
2016-08-22T07:30:56.918Z,90.53
2016-08-22T07:31:57.084Z,90.14
2016-08-22T07:32:56.860Z,90.43
2016-08-22T07:33:56.811Z,90.33
2016-08-22T07:34:56.035Z,90.62
2016-08-22T07:35:56.706Z,90.53
2016-08-22T07:36:56.859Z,90.62
2016-08-22T07:37:57.372Z,90.43
2016-08-22T07:38:56.800Z,90.33
2016-08-22T07:39:56.483Z,90.72
2016-08-22T07:40:56.637Z,90.43
2016-08-22T07:41:55.695Z,90.62
2016-08-22T07:42:56.343Z,90.53
2016-08-22T07:43:56.278Z,90.43
2016-08-22T07:44:56.265Z,90.23
2016-08-22T07:45:56.213Z,90.72
2016-08-22T07:46:56.151Z,90.14
2016-08-22T07:47:56.097Z,90.43
2016-08-22T07:48:55.348Z,90.43
2016-08-22T07:49:56.026Z,90.43
2016-08-22T07:50:55.269Z,91
2016-08-22T07:51:55.450Z,91.49
2016-08-22T07:52:56.521Z,91.39
2016-08-22T07:53:56.015Z,91.19
2016-08-22T07:54:55.775Z,91.39
2016-08-22T07:55:55.929Z,91.49
2016-08-22T07:56:55.703Z,91
2016-08-22T07:57:55.141Z,90.91
2016-08-22T07:58:55.576Z,90.91
2016-08-22T07:59:55.530Z,91.39
2016-08-22T08:00:54.777Z,90.53
2016-08-22T08:01:55.454Z,90.53
2016-08-22T08:02:55.818Z,91.1
2016-08-22T08:03:55.405Z,91.49
2016-08-22T08:04:55.297Z,90.91
2016-08-22T08:05:54.548Z,90.72
2016-08-22T08:06:55.199Z,90.72
2016-08-22T08:07:55.148Z,90.81
2016-08-22T08:08:55.161Z,90.67
2016-08-22T08:09:55.052Z,91.49
2016-08-22T08:10:55.023Z,91.29
2016-08-22T08:11:54.510Z,90.91
2016-08-22T08:12:54.912Z,91.49
2016-08-22T08:13:54.166Z,91.96
2016-08-22T08:14:55.002Z,91.39
2016-08-22T08:15:54.792Z,91.67
2016-08-22T08:16:54.757Z,91.39
2016-08-22T08:17:54.706Z,92.06
2016-08-22T08:18:54.724Z,92.06
2016-08-22T08:19:55.399Z,91.49
2016-08-22T08:20:54.570Z,91.58
2016-08-22T08:21:54.508Z,91.77
2016-08-22T08:22:53.761Z,91.96
2016-08-22T08:23:54.395Z,91.67
2016-08-22T08:24:54.352Z,91.58
2016-08-22T08:25:54.295Z,91.67
2016-08-22T08:26:53.748Z,91.34
2016-08-22T08:27:54.424Z,91.77
2016-08-22T08:28:54.195Z,91.63
2016-08-22T08:29:53.409Z,91.63
2016-08-22T08:30:54.225Z,91.49
2016-08-22T08:31:54.018Z,92.1
2016-08-22T08:32:53.968Z,91.82
2016-08-22T08:33:54.124Z,91.63
2016-08-22T08:34:54.074Z,92.2
2016-08-22T08:35:54.236Z,91.63
2016-08-22T08:36:53.987Z,91.82
2016-08-22T08:37:53.809Z,91.72
2016-08-22T08:38:53.876Z,92.2
2016-08-22T08:39:53.037Z,92.1
2016-08-22T08:40:53.645Z,92.2
2016-08-22T08:41:52.846Z,91.91
2016-08-22T08:42:56.722Z,92.58
2016-08-22T08:43:53.487Z,92.3
2016-08-22T08:44:53.598Z,92.39
2016-08-22T08:45:53.010Z,92.77
2016-08-22T08:46:53.508Z,92.58
2016-08-22T08:47:53.934Z,92.39
2016-08-22T08:48:52.714Z,92.58
2016-08-22T08:49:52.466Z,93.06
2016-08-22T08:50:53.365Z,92.49
2016-08-22T08:51:52.377Z,92.87
2016-08-22T08:52:52.316Z,92.49
2016-08-22T08:53:52.317Z,92.49
2016-08-22T08:54:53.074Z,92.2
2016-08-22T08:55:52.892Z,92.2
2016-08-22T08:56:53.065Z,92.58
2016-08-22T08:57:52.791Z,91.91
2016-08-22T08:58:52.993Z,92.3
2016-08-22T08:59:52.708Z,92.2
2016-08-22T09:00:52.671Z,93.06
2016-08-22T09:01:52.615Z,92.87
2016-08-22T09:02:51.860Z,92.1
2016-08-22T09:03:52.525Z,92.3
2016-08-22T09:04:52.466Z,92.01
2016-08-22T09:05:52.427Z,92.2
2016-08-22T09:06:52.375Z,92.58
2016-08-22T09:07:51.629Z,92.1
2016-08-22T09:08:51.572Z,92.15
2016-08-22T09:09:52.237Z,92.15
2016-08-22T09:10:52.770Z,92.01
2016-08-22T09:11:52.134Z,92.05
2016-08-22T09:12:52.085Z,92.3
2016-08-22T09:13:51.543Z,92.3
2016-08-22T09:14:52.183Z,92.39
2016-08-22T09:15:52.155Z,92.82
2016-08-22T09:16:56.818Z,92.24
2016-08-22T09:17:51.845Z,92.24
2016-08-22T09:18:51.805Z,92.15
2016-08-22T09:19:51.767Z,92.34
2016-08-22T09:20:51.213Z,92.15
2016-08-22T09:21:50.976Z,91.77
2016-08-22T09:22:50.931Z,91.77
2016-08-22T09:23:51.574Z,91.77
2016-08-22T09:24:52.142Z,91.57
2016-08-22T09:25:50.773Z,91.38
2016-08-22T09:26:51.424Z,91.57
2016-08-22T09:27:51.619Z,91.57
2016-08-22T09:28:51.757Z,91.81
2016-08-22T09:29:51.295Z,91.67
2016-08-22T09:30:52.018Z,91.38
2016-08-22T09:31:51.203Z,91.62
2016-08-22T09:32:51.492Z,91.77
2016-08-22T09:33:51.647Z,91.86
2016-08-22T09:34:51.450Z,91.48
2016-08-22T09:35:51.029Z,91.62
2016-08-22T09:36:51.653Z,91.38
